createdAt,value
2023-01-07T00:01:23.865Z,0.83
2023-01-07T00:03:51.431Z,0.90
2023-01-07T00:06:21.316Z,1.00
2023-01-07T00:08:49.473Z,1.00
2023-01-07T00:11:20.143Z,1.63
2023-01-07T00:13:49.111Z,2.97
2023-01-07T00:16:18.487Z,3.00
2023-01-07T00:18:45.797Z,3.00
2023-01-07T00:21:15.729Z,2.43
2023-01-07T00:23:43.664Z,2.07
2023-01-07T00:26:21.275Z,3.93
2023-01-07T00:28:49.178Z,2.73
2023-01-07T00:31:17.910Z,2.17
2023-01-07T00:33:53.702Z,2.00
2023-01-07T00:36:21.319Z,2.23
2023-01-07T00:38:47.916Z,1.87
2023-01-07T00:41:14.499Z,1.47
2023-01-07T00:43:40.908Z,1.30
2023-01-07T00:46:09.378Z,1.17
2023-01-07T00:48:35.769Z,2.13
2023-01-07T00:51:02.156Z,1.60
2023-01-07T00:53:30.285Z,1.40
2023-01-07T00:55:56.835Z,1.67
2023-01-07T00:58:25.177Z,1.40
2023-01-07T01:00:59.317Z,1.87
2023-01-07T01:03:27.345Z,1.40
2023-01-07T01:05:54.409Z,1.10
2023-01-07T01:08:21.318Z,1.23
2023-01-07T01:10:48.244Z,1.30
2023-01-07T01:13:18.361Z,1.03
2023-01-07T01:15:46.793Z,1.00
2023-01-07T01:18:13.389Z,1.23
2023-01-07T01:20:40.104Z,1.43
2023-01-07T01:23:06.720Z,1.53
2023-01-07T01:25:33.248Z,1.13
2023-01-07T01:27:59.651Z,0.90
2023-01-07T01:30:26.212Z,1.40
2023-01-07T01:32:53.129Z,1.40
2023-01-07T01:35:19.553Z,1.50
2023-01-07T01:37:45.969Z,1.50
2023-01-07T01:40:12.769Z,1.20
2023-01-07T01:42:39.174Z,1.20
2023-01-07T01:45:06.327Z,1.20
2023-01-07T01:47:53.900Z,1.40
2023-01-07T01:50:32.491Z,1.27
2023-01-07T01:53:07.461Z,1.20
2023-01-07T01:55:40.965Z,1.07
2023-01-07T01:58:12.899Z,1.30
2023-01-07T02:00:39.601Z,1.37
2023-01-07T02:03:08.511Z,1.20
2023-01-07T02:05:40.568Z,1.47
2023-01-07T02:08:07.487Z,1.70
2023-01-07T02:10:35.075Z,1.43
2023-01-07T02:13:25.284Z,1.20
2023-01-07T02:16:00.665Z,1.40
2023-01-07T02:18:35.892Z,1.27
2023-01-07T02:21:28.930Z,1.53
2023-01-07T02:24:28.777Z,1.43
2023-01-07T02:27:20.856Z,1.27
2023-01-07T02:30:05.752Z,1.50
2023-01-07T02:32:55.416Z,1.40
2023-01-07T02:35:51.069Z,1.30
2023-01-07T02:38:42.026Z,1.30
2023-01-07T02:41:28.897Z,1.30
2023-01-07T02:44:05.186Z,1.27
2023-01-07T02:47:12.801Z,0.90
2023-01-07T02:49:39.252Z,1.00
2023-01-07T02:52:19.993Z,1.70
2023-01-07T02:54:52.719Z,1.13
2023-01-07T02:57:25.821Z,1.30
2023-01-07T03:00:07.226Z,0.90
2023-01-07T03:02:49.346Z,1.03
2023-01-07T03:05:37.703Z,1.10
2023-01-07T03:08:20.266Z,1.10
2023-01-07T03:11:08.284Z,1.00
2023-01-07T03:14:12.886Z,0.80
2023-01-07T03:16:43.180Z,1.20
2023-01-07T03:19:16.903Z,1.33
2023-01-07T03:21:47.568Z,1.20
2023-01-07T03:24:15.906Z,0.80
2023-01-07T03:26:48.154Z,1.00
2023-01-07T03:29:17.503Z,1.00
2023-01-07T03:31:57.438Z,0.97
2023-01-07T03:34:27.058Z,1.03
2023-01-07T03:36:59.620Z,1.03
2023-01-07T03:39:29.920Z,1.20
2023-01-07T03:42:15.059Z,0.80
2023-01-07T03:44:41.721Z,0.90
2023-01-07T03:47:09.808Z,1.00
2023-01-07T03:49:36.995Z,0.90
2023-01-07T03:52:03.932Z,1.13
2023-01-07T03:54:30.321Z,0.97
2023-01-07T03:56:56.767Z,0.90
2023-01-07T03:59:23.196Z,0.80
2023-01-07T04:01:49.917Z,0.90
2023-01-07T04:04:16.607Z,0.87
2023-01-07T04:06:43.023Z,0.80
2023-01-07T04:09:09.440Z,1.03
2023-01-07T04:11:35.869Z,0.90
2023-01-07T04:14:02.217Z,0.93
2023-01-07T04:16:28.759Z,0.83
2023-01-07T04:18:55.368Z,0.90
2023-01-07T04:21:21.732Z,1.10
2023-01-07T04:23:48.141Z,0.90
2023-01-07T04:26:14.665Z,1.00
2023-01-07T04:28:41.161Z,1.00
2023-01-07T04:31:07.961Z,1.10
2023-01-07T04:33:35.861Z,1.83
2023-01-07T04:36:02.539Z,1.57
2023-01-07T04:38:28.972Z,2.10
2023-01-07T04:40:55.462Z,1.67
2023-01-07T04:43:21.948Z,1.63
2023-01-07T04:45:48.361Z,2.00
2023-01-07T04:48:14.823Z,1.70
2023-01-07T04:50:41.267Z,2.00
2023-01-07T04:53:07.944Z,2.10
2023-01-07T04:55:34.481Z,1.73
2023-01-07T04:58:00.826Z,1.90
2023-01-07T05:00:27.342Z,1.90
2023-01-07T05:02:53.833Z,2.00
2023-01-07T05:05:21.417Z,2.10
2023-01-07T05:07:47.859Z,2.20
2023-01-07T05:10:14.391Z,2.00
2023-01-07T05:12:40.822Z,2.00
2023-01-07T05:15:08.961Z,1.80
2023-01-07T05:17:35.428Z,1.97
2023-01-07T05:20:02.007Z,2.20
2023-01-07T05:22:28.418Z,2.20
2023-01-07T05:24:54.850Z,2.40
2023-01-07T05:27:21.297Z,2.17
2023-01-07T05:29:47.733Z,2.17
2023-01-07T05:32:14.130Z,1.90
2023-01-07T05:34:40.618Z,2.00
2023-01-07T05:37:07.433Z,2.00
2023-01-07T05:39:33.993Z,2.03
2023-01-07T05:42:00.587Z,2.13
2023-01-07T05:44:27.006Z,2.00
2023-01-07T05:46:53.459Z,2.00
2023-01-07T05:49:19.869Z,2.00
2023-01-07T05:51:46.259Z,1.97
2023-01-07T05:54:12.618Z,2.00
2023-01-07T05:56:38.990Z,2.43
2023-01-07T05:59:05.747Z,1.90
2023-01-07T06:01:32.455Z,2.00
2023-01-07T06:03:58.958Z,2.20
2023-01-07T06:06:25.404Z,2.23
2023-01-07T06:08:51.991Z,2.40
2023-01-07T06:11:18.447Z,2.20
2023-01-07T06:13:44.941Z,2.17
2023-01-07T06:16:13.643Z,2.80
2023-01-07T06:18:40.088Z,2.30
2023-01-07T06:21:06.531Z,2.10
2023-01-07T06:23:33.060Z,2.00
2023-01-07T06:25:59.637Z,2.43
2023-01-07T06:28:26.241Z,2.10
2023-01-07T06:30:52.672Z,2.27
2023-01-07T06:33:19.097Z,1.80
2023-01-07T06:35:46.285Z,1.60
2023-01-07T06:38:13.033Z,1.70
2023-01-07T06:40:39.612Z,1.27
2023-01-07T06:43:06.099Z,1.30
2023-01-07T06:45:32.506Z,1.50
2023-01-07T06:47:59.028Z,1.37
2023-01-07T06:50:25.656Z,1.20
2023-01-07T06:52:52.189Z,1.30
2023-01-07T06:55:18.708Z,1.20
2023-01-07T06:57:45.269Z,1.53
2023-01-07T07:00:12.267Z,1.50
2023-01-07T07:02:38.766Z,1.40
2023-01-07T07:05:05.652Z,1.33
2023-01-07T07:07:33.414Z,1.40
2023-01-07T07:09:59.825Z,1.43
2023-01-07T07:12:26.282Z,1.20
2023-01-07T07:14:52.786Z,1.37
2023-01-07T07:17:19.165Z,1.50
2023-01-07T07:19:45.565Z,1.27
2023-01-07T07:22:12.792Z,1.43
2023-01-07T07:24:39.190Z,1.83
2023-01-07T07:27:05.585Z,1.50
2023-01-07T07:29:32.036Z,1.20
2023-01-07T07:31:58.518Z,1.10
2023-01-07T07:34:24.948Z,1.40
2023-01-07T07:36:51.336Z,1.07
2023-01-07T07:39:17.735Z,0.90
2023-01-07T07:41:44.186Z,1.20
2023-01-07T07:44:10.639Z,0.87
2023-01-07T07:46:37.094Z,0.93
2023-01-07T07:49:03.921Z,1.00
2023-01-07T07:51:30.833Z,1.23
2023-01-07T07:53:57.208Z,0.90
2023-01-07T07:56:23.655Z,1.07
2023-01-07T07:58:50.043Z,0.93
2023-01-07T08:01:16.670Z,1.10
2023-01-07T08:03:43.231Z,0.87
2023-01-07T08:06:11.489Z,0.80
2023-01-07T08:08:38.035Z,0.97
2023-01-07T08:11:04.717Z,0.87
2023-01-07T08:13:31.817Z,1.10
2023-01-07T08:15:58.368Z,1.03
2023-01-07T08:18:25.277Z,1.00
2023-01-07T08:20:51.754Z,0.83
2023-01-07T08:23:18.193Z,0.80
2023-01-07T08:25:44.612Z,0.90
2023-01-07T08:28:11.716Z,0.77
2023-01-07T08:30:38.660Z,0.70
2023-01-07T08:33:07.285Z,0.67
2023-01-07T08:35:34.618Z,1.00
2023-01-07T08:38:06.130Z,0.70
2023-01-07T08:40:32.860Z,0.80
2023-01-07T08:43:01.013Z,0.70
2023-01-07T08:45:28.411Z,0.80
2023-01-07T08:47:57.619Z,1.07
2023-01-07T08:50:29.894Z,0.87
2023-01-07T08:52:56.718Z,1.00
2023-01-07T08:55:23.935Z,0.80
2023-01-07T08:57:52.081Z,1.10
2023-01-07T09:00:21.030Z,1.00
2023-01-07T09:02:47.546Z,1.10
2023-01-07T09:05:14.054Z,1.13
2023-01-07T09:07:40.498Z,1.90
2023-01-07T09:10:07.478Z,1.73
2023-01-07T09:12:35.077Z,1.20
2023-01-07T09:15:01.493Z,1.20
2023-01-07T09:17:28.174Z,0.90
2023-01-07T09:19:54.762Z,0.80
2023-01-07T09:22:23.099Z,0.90
2023-01-07T09:24:49.530Z,0.90
2023-01-07T09:27:16.960Z,0.97
2023-01-07T09:29:43.496Z,1.10
2023-01-07T09:32:10.527Z,1.00
2023-01-07T09:34:38.161Z,1.03
2023-01-07T09:37:04.992Z,1.10
2023-01-07T09:39:31.826Z,1.20
2023-01-07T09:42:13.788Z,1.20
2023-01-07T09:45:02.357Z,1.40
2023-01-07T09:47:30.024Z,1.40
2023-01-07T09:50:03.445Z,1.20
2023-01-07T09:52:38.077Z,1.33
2023-01-07T09:55:20.931Z,1.10
2023-01-07T09:57:47.694Z,1.60
2023-01-07T10:00:20.895Z,1.50
2023-01-07T10:02:57.061Z,1.30
2023-01-07T10:06:01.590Z,1.50
2023-01-07T10:09:02.577Z,1.57
2023-01-07T10:11:55.373Z,1.50
2023-01-07T10:14:40.171Z,1.60
2023-01-07T10:17:20.032Z,1.70
2023-01-07T10:20:10.323Z,1.77
2023-01-07T10:22:43.591Z,1.90
2023-01-07T10:25:20.190Z,2.20
2023-01-07T10:27:49.651Z,1.80
2023-01-07T10:30:23.314Z,1.70
2023-01-07T10:33:12.039Z,2.47
2023-01-07T10:35:41.108Z,1.93
2023-01-07T10:38:18.048Z,1.90
2023-01-07T10:40:51.621Z,2.53
2023-01-07T10:43:36.537Z,2.27
2023-01-07T10:46:15.624Z,2.00
2023-01-07T10:49:16.051Z,2.77
2023-01-07T10:52:08.904Z,2.20
2023-01-07T10:55:13.109Z,2.77
2023-01-07T10:57:39.737Z,2.60
2023-01-07T11:00:13.498Z,2.47
2023-01-07T11:02:44.270Z,2.37
2023-01-07T11:05:14.098Z,2.80
2023-01-07T11:07:46.761Z,2.50
2023-01-07T11:10:20.360Z,2.47
2023-01-07T11:12:52.494Z,2.30
2023-01-07T11:15:41.017Z,2.23
2023-01-07T11:18:18.818Z,2.67
2023-01-07T11:20:57.194Z,2.73
2023-01-07T11:23:32.745Z,2.40
2023-01-07T11:26:22.840Z,2.40
2023-01-07T11:28:58.687Z,2.70
2023-01-07T11:31:49.125Z,2.43
2023-01-07T11:34:37.181Z,2.40
2023-01-07T11:37:05.375Z,2.67
2023-01-07T11:39:36.238Z,2.17
2023-01-07T11:42:31.839Z,2.77
2023-01-07T11:46:20.053Z,2.50
2023-01-07T11:48:36.461Z,2.20
2023-01-07T11:51:10.120Z,2.70
2023-01-07T11:53:41.604Z,2.33
2023-01-07T11:56:11.914Z,2.13
2023-01-07T11:58:42.405Z,2.03
2023-01-07T12:01:08.890Z,2.37
2023-01-07T12:03:54.193Z,2.30
2023-01-07T12:06:26.673Z,2.03
2023-01-07T12:09:16.165Z,2.67
2023-01-07T12:11:44.413Z,2.37
2023-01-07T12:14:17.007Z,2.23
2023-01-07T12:16:47.510Z,2.80
2023-01-07T12:19:34.417Z,2.83
2023-01-07T12:22:09.783Z,2.57
2023-01-07T12:25:09.583Z,2.57
2023-01-07T12:28:01.026Z,2.43
2023-01-07T12:30:34.398Z,2.17
2023-01-07T12:33:07.897Z,2.60
2023-01-07T12:35:40.282Z,2.47
2023-01-07T12:38:20.531Z,2.20
2023-01-07T12:40:54.760Z,2.43
2023-01-07T12:43:36.809Z,2.33
2023-01-07T12:46:12.190Z,2.30
2023-01-07T12:48:42.974Z,1.83
2023-01-07T12:51:22.205Z,2.67
2023-01-07T12:53:54.955Z,2.50
2023-01-07T12:56:27.621Z,2.30
2023-01-07T12:59:01.032Z,2.20
2023-01-07T13:01:38.829Z,2.20
2023-01-07T13:04:31.432Z,2.23
2023-01-07T13:07:14.939Z,2.23
2023-01-07T13:10:00.429Z,2.23
2023-01-07T13:12:46.007Z,2.17
2023-01-07T13:15:28.739Z,2.70
2023-01-07T13:17:57.819Z,2.37
2023-01-07T13:20:52.444Z,2.13
2023-01-07T13:23:41.186Z,2.17
2023-01-07T13:26:25.944Z,2.40
2023-01-07T13:28:52.316Z,2.20
2023-01-07T13:31:34.064Z,2.30
2023-01-07T13:34:24.012Z,2.17
2023-01-07T13:37:18.580Z,1.90
2023-01-07T13:40:01.393Z,1.97
2023-01-07T13:42:49.137Z,2.10
2023-01-07T13:45:15.778Z,2.30
2023-01-07T13:47:50.448Z,2.10
2023-01-07T13:50:27.255Z,2.77
2023-01-07T13:53:16.643Z,2.03
2023-01-07T13:55:45.958Z,2.20
2023-01-07T13:58:30.824Z,2.33
2023-01-07T14:01:03.132Z,2.37
2023-01-07T14:03:39.282Z,2.27
2023-01-07T14:06:21.156Z,2.40
2023-01-07T14:09:00.025Z,2.00
2023-01-07T14:11:42.008Z,1.80
2023-01-07T14:14:50.561Z,2.50
2023-01-07T14:17:35.269Z,2.10
2023-01-07T14:20:18.369Z,1.93
2023-01-07T14:23:07.904Z,2.10
2023-01-07T14:25:53.106Z,2.10
2023-01-07T14:28:56.667Z,2.07
2023-01-07T14:31:32.046Z,2.27
2023-01-07T14:34:07.134Z,2.30
2023-01-07T14:37:01.630Z,2.50
2023-01-07T14:39:36.880Z,2.27
2023-01-07T14:42:18.569Z,2.10
2023-01-07T14:44:49.759Z,2.23
2023-01-07T14:47:41.271Z,2.23
2023-01-07T14:50:20.269Z,2.47
2023-01-07T14:53:01.826Z,2.20
2023-01-07T14:55:41.626Z,2.03
2023-01-07T14:58:32.901Z,2.37
2023-01-07T15:01:08.500Z,2.63
2023-01-07T15:03:59.445Z,2.03
2023-01-07T15:06:37.600Z,2.47
2023-01-07T15:09:32.374Z,2.37
2023-01-07T15:12:21.820Z,2.70
2023-01-07T15:15:16.231Z,2.33
2023-01-07T15:17:43.561Z,2.60
2023-01-07T15:20:10.761Z,2.90
2023-01-07T15:22:54.621Z,2.30
2023-01-07T15:25:48.840Z,2.53
2023-01-07T15:28:28.795Z,3.23
2023-01-07T15:31:13.452Z,2.20
2023-01-07T15:33:43.041Z,2.60
2023-01-07T15:36:13.399Z,2.53
2023-01-07T15:38:50.188Z,3.00
2023-01-07T15:41:28.401Z,2.70
2023-01-07T15:43:55.988Z,2.70
2023-01-07T15:46:24.195Z,3.07
2023-01-07T15:49:08.515Z,2.87
2023-01-07T15:51:41.291Z,2.90
2023-01-07T15:54:24.197Z,3.03
2023-01-07T15:56:54.053Z,3.13
2023-01-07T15:59:29.992Z,3.17
2023-01-07T16:02:04.401Z,3.27
2023-01-07T16:04:33.986Z,3.27
2023-01-07T16:07:01.021Z,2.70
2023-01-07T16:09:28.661Z,2.83
2023-01-07T16:11:55.517Z,2.93
2023-01-07T16:14:25.337Z,2.93
2023-01-07T16:17:14.614Z,2.30
2023-01-07T16:19:42.289Z,2.83
2023-01-07T16:22:17.433Z,3.00
2023-01-07T16:24:50.590Z,2.83
2023-01-07T16:27:28.526Z,2.90
2023-01-07T16:29:58.004Z,3.10
2023-01-07T16:32:25.603Z,2.80
2023-01-07T16:35:01.341Z,2.93
2023-01-07T16:37:28.702Z,3.30
2023-01-07T16:39:55.727Z,2.73
2023-01-07T16:42:23.271Z,3.30
2023-01-07T16:44:53.917Z,3.00
2023-01-07T16:47:26.338Z,3.40
2023-01-07T16:49:53.962Z,3.13
2023-01-07T16:52:22.311Z,3.37
2023-01-07T16:54:49.618Z,2.90
2023-01-07T16:57:15.995Z,3.03
2023-01-07T16:59:45.696Z,3.40
2023-01-07T17:02:19.808Z,3.37
2023-01-07T17:04:47.296Z,2.97
2023-01-07T17:07:28.356Z,3.43
2023-01-07T17:09:57.781Z,3.47
2023-01-07T17:12:36.868Z,3.30
2023-01-07T17:15:32.440Z,3.23
2023-01-07T17:18:11.190Z,2.90
2023-01-07T17:20:46.644Z,2.80
2023-01-07T17:23:25.324Z,3.00
2023-01-07T17:26:10.548Z,2.87
2023-01-07T17:28:48.153Z,3.20
2023-01-07T17:31:15.446Z,4.00
2023-01-07T17:33:42.730Z,3.60
2023-01-07T17:36:27.452Z,3.80
2023-01-07T17:38:53.841Z,3.83
2023-01-07T17:41:40.759Z,3.20
2023-01-07T17:44:11.460Z,3.30
2023-01-07T17:46:38.924Z,3.10
2023-01-07T17:49:05.487Z,4.10
2023-01-07T17:51:36.612Z,3.70
2023-01-07T17:54:03.566Z,3.70
2023-01-07T17:56:29.998Z,3.90
2023-01-07T17:58:56.434Z,3.30
2023-01-07T18:01:23.350Z,3.70
2023-01-07T18:03:51.253Z,3.20
2023-01-07T18:06:24.422Z,3.23
2023-01-07T18:08:52.298Z,3.60
2023-01-07T18:11:40.501Z,3.90
2023-01-07T18:14:07.572Z,4.03
2023-01-07T18:16:34.543Z,3.90
2023-01-07T18:19:01.081Z,4.63
2023-01-07T18:21:27.523Z,3.90
2023-01-07T18:23:53.958Z,3.53
2023-01-07T18:26:20.543Z,3.27
2023-01-07T18:28:48.069Z,4.10
2023-01-07T18:31:15.541Z,3.93
2023-01-07T18:33:42.260Z,4.23
2023-01-07T18:36:10.712Z,3.63
2023-01-07T18:38:38.116Z,3.60
2023-01-07T18:41:04.884Z,3.70
2023-01-07T18:43:31.694Z,4.27
2023-01-07T18:45:58.255Z,4.23
2023-01-07T18:48:26.076Z,3.83
2023-01-07T18:50:53.022Z,4.33
2023-01-07T18:53:19.642Z,4.60
2023-01-07T18:55:46.748Z,6.50
2023-01-07T18:58:14.842Z,5.07
2023-01-07T19:00:41.987Z,4.27
2023-01-07T19:03:09.953Z,4.93
2023-01-07T19:05:39.882Z,4.37
2023-01-07T19:08:06.511Z,4.00
2023-01-07T19:10:32.983Z,4.30
2023-01-07T19:12:59.489Z,3.87
2023-01-07T19:15:25.987Z,4.43
2023-01-07T19:17:52.385Z,4.50
2023-01-07T19:20:18.819Z,3.70
2023-01-07T19:22:45.245Z,4.13
2023-01-07T19:25:11.765Z,4.47
2023-01-07T19:27:38.267Z,4.27
2023-01-07T19:30:05.833Z,3.93
2023-01-07T19:32:34.995Z,4.33
2023-01-07T19:35:01.555Z,4.70
2023-01-07T19:37:28.690Z,4.63
2023-01-07T19:39:55.124Z,4.67
2023-01-07T19:42:21.506Z,4.90
2023-01-07T19:44:47.904Z,5.10
2023-01-07T19:47:16.429Z,5.17
2023-01-07T19:49:45.165Z,5.43
2023-01-07T19:52:13.417Z,5.47
2023-01-07T19:54:40.049Z,5.50
2023-01-07T19:57:06.556Z,5.27
2023-01-07T19:59:34.946Z,5.10
2023-01-07T20:02:02.939Z,4.30
2023-01-07T20:04:29.558Z,4.23
2023-01-07T20:06:56.094Z,4.30
2023-01-07T20:09:23.041Z,4.50
2023-01-07T20:11:49.570Z,3.97
2023-01-07T20:14:16.025Z,4.17
2023-01-07T20:16:42.799Z,4.27
2023-01-07T20:19:11.629Z,4.17
2023-01-07T20:21:39.201Z,4.03
2023-01-07T20:24:06.384Z,3.83
2023-01-07T20:26:34.330Z,4.67
2023-01-07T20:29:01.302Z,7.03
2023-01-07T20:31:29.076Z,4.50
2023-01-07T20:33:55.923Z,4.20
2023-01-07T20:36:25.736Z,3.73
2023-01-07T20:38:52.452Z,4.43
2023-01-07T20:41:21.781Z,4.40
2023-01-07T20:43:56.369Z,3.80
2023-01-07T20:46:23.663Z,3.80
2023-01-07T20:48:50.564Z,4.60
2023-01-07T20:51:17.679Z,4.27
2023-01-07T20:53:44.516Z,4.00
2023-01-07T20:56:12.466Z,4.37
2023-01-07T20:58:39.803Z,4.53
2023-01-07T21:01:10.763Z,4.43
2023-01-07T21:03:38.796Z,4.13
2023-01-07T21:06:08.192Z,4.10
2023-01-07T21:08:36.089Z,3.83
2023-01-07T21:11:02.628Z,4.77
2023-01-07T21:13:29.173Z,3.60
2023-01-07T21:16:02.104Z,4.70
2023-01-07T21:18:28.696Z,4.43
2023-01-07T21:20:55.121Z,4.20
2023-01-07T21:23:21.556Z,4.60
2023-01-07T21:25:49.047Z,4.23
2023-01-07T21:28:15.700Z,3.60
2023-01-07T21:30:42.146Z,3.97
2023-01-07T21:33:08.632Z,3.83
2023-01-07T21:35:35.189Z,3.90
2023-01-07T21:38:01.573Z,3.60
2023-01-07T21:40:28.175Z,3.87
2023-01-07T21:42:54.643Z,4.23
2023-01-07T21:45:21.148Z,3.97
2023-01-07T21:47:50.589Z,3.80
2023-01-07T21:50:17.167Z,4.43
2023-01-07T21:52:43.708Z,4.20
2023-01-07T21:55:10.330Z,4.27
2023-01-07T21:57:37.395Z,4.07
2023-01-07T22:00:05.460Z,3.97
2023-01-07T22:02:32.006Z,4.13
2023-01-07T22:04:58.403Z,3.30
2023-01-07T22:07:24.825Z,4.37
2023-01-07T22:09:51.291Z,3.70
2023-01-07T22:12:17.858Z,4.23
2023-01-07T22:14:44.272Z,4.03
2023-01-07T22:17:11.337Z,4.13
2023-01-07T22:19:37.869Z,4.20
2023-01-07T22:22:04.393Z,6.33
2023-01-07T22:24:30.872Z,4.90
2023-01-07T22:26:57.441Z,4.20
2023-01-07T22:29:24.077Z,3.87
2023-01-07T22:31:52.722Z,3.83
2023-01-07T22:34:19.527Z,4.10
2023-01-07T22:37:11.055Z,4.30
2023-01-07T22:39:41.484Z,4.20
2023-01-07T22:42:15.067Z,3.90
2023-01-07T22:44:47.227Z,4.50
2023-01-07T22:47:17.825Z,4.17
2023-01-07T22:49:45.125Z,3.10
2023-01-07T22:52:11.905Z,3.57
2023-01-07T22:54:39.079Z,3.40
2023-01-07T22:57:08.443Z,3.30
2023-01-07T22:59:35.647Z,3.27
2023-01-07T23:02:02.323Z,3.33
2023-01-07T23:04:29.238Z,3.40
2023-01-07T23:06:55.787Z,3.17
2023-01-07T23:09:22.222Z,3.10
2023-01-07T23:11:48.726Z,3.20
2023-01-07T23:14:16.667Z,3.17
2023-01-07T23:16:43.296Z,3.17
2023-01-07T23:19:09.978Z,3.50
2023-01-07T23:21:39.924Z,2.33
2023-01-07T23:24:06.553Z,3.10
2023-01-07T23:26:32.978Z,3.20
2023-01-07T23:28:59.426Z,3.57
2023-01-07T23:31:25.845Z,2.87
2023-01-07T23:33:52.262Z,2.97
2023-01-07T23:36:18.691Z,3.40
2023-01-07T23:38:45.427Z,3.10
2023-01-07T23:41:12.302Z,2.83
2023-01-07T23:43:38.837Z,3.40
2023-01-07T23:46:07.356Z,2.80
2023-01-07T23:48:35.818Z,3.43
2023-01-07T23:51:17.266Z,3.37
2023-01-07T23:53:44.485Z,2.97
2023-01-07T23:56:11.551Z,3.20
2023-01-07T23:58:38.302Z,3.47
